KQEL

Gapyong

Gapyong, South Korea
METAR KQEL 201250Z AUTO 36001KT 2800 HZ CLR M03/M06 A3029 RMK A02 TSNO
Observed Flight Rules
Jan-20 @ 12:50 UTC (11 minutes ago) Instrument Flight Rules
Wind Visibility Clouds Conditions
360° at 1 knots 2,800 meters
  • Clear skies
  • Haze
Temperatures Readings
Current -3°C / 27°F
Dewpoint -6°C / 21°F
Humidity 80%
Altimeter 30.29" Hg
Pressure 1026 hPa
METAR KQEL 201250Z AUTO 36001KT 2800 HZ CLR M03/M06 A3029 RMK A02 TSNO
Observed Flight Rules
Jan-20 @ 12:50 UTC
(11 minutes ago)
IFR
Wind Visibility
360° at 1 knots 2,800 meters
Clouds
  • Clear skies
Conditions
  • Haze
Temperature Dewpoint
-3°C / 27°F -6°C / 21°F
Humidity Altimeter Pressure
80% 30.29" Hg 1026 hPa